sensor_id;sensor_type;location;lat;lon;timestamp;P1;durP1;ratioP1;P2;durP2;ratioP2
12437;SDS011;6283;51.330;12.374;2022-10-16T00:01:19;1.13;;;1.00;;
12437;SDS011;6283;51.330;12.374;2022-10-16T00:03:48;1.42;;;0.85;;
12437;SDS011;6283;51.330;12.374;2022-10-16T00:06:14;0.80;;;0.80;;
12437;SDS011;6283;51.330;12.374;2022-10-16T00:08:42;1.08;;;1.00;;
12437;SDS011;6283;51.330;12.374;2022-10-16T00:11:10;1.73;;;1.00;;
12437;SDS011;6283;51.330;12.374;2022-10-16T00:13:38;1.05;;;1.05;;
12437;SDS011;6283;51.330;12.374;2022-10-16T00:16:05;1.25;;;1.10;;
12437;SDS011;6283;51.330;12.374;2022-10-16T00:18:32;1.15;;;1.05;;
12437;SDS011;6283;51.330;12.374;2022-10-16T00:21:02;0.85;;;0.85;;
12437;SDS011;6283;51.330;12.374;2022-10-16T00:23:33;2.45;;;1.00;;
12437;SDS011;6283;51.330;12.374;2022-10-16T00:26:00;0.80;;;0.80;;
12437;SDS011;6283;51.330;12.374;2022-10-16T00:28:28;0.90;;;0.90;;
12437;SDS011;6283;51.330;12.374;2022-10-16T00:30:53;2.25;;;0.90;;
12437;SDS011;6283;51.330;12.374;2022-10-16T00:33:19;0.98;;;0.98;;
12437;SDS011;6283;51.330;12.374;2022-10-16T00:35:45;0.80;;;0.80;;
12437;SDS011;6283;51.330;12.374;2022-10-16T00:38:11;0.93;;;0.80;;
12437;SDS011;6283;51.330;12.374;2022-10-16T00:40:37;0.73;;;0.73;;
12437;SDS011;6283;51.330;12.374;2022-10-16T00:43:04;0.85;;;0.80;;
12437;SDS011;6283;51.330;12.374;2022-10-16T00:45:37;6.60;;;1.35;;
12437;SDS011;6283;51.330;12.374;2022-10-16T00:48:03;0.68;;;0.68;;
12437;SDS011;6283;51.330;12.374;2022-10-16T00:50:30;1.33;;;1.08;;
12437;SDS011;6283;51.330;12.374;2022-10-16T00:52:58;1.85;;;1.00;;
12437;SDS011;6283;51.330;12.374;2022-10-16T00:55:25;0.98;;;0.95;;
12437;SDS011;6283;51.330;12.374;2022-10-16T00:57:53;1.27;;;0.93;;
12437;SDS011;6283;51.330;12.374;2022-10-16T01:00:23;1.00;;;1.00;;
12437;SDS011;6283;51.330;12.374;2022-10-16T01:02:54;1.63;;;0.80;;
12437;SDS011;6283;51.330;12.374;2022-10-16T01:05:22;0.70;;;0.70;;
12437;SDS011;6283;51.330;12.374;2022-10-16T01:08:52;3.35;;;1.02;;
12437;SDS011;6283;51.330;12.374;2022-10-16T01:10:57;1.27;;;1.13;;
12437;SDS011;6283;51.330;12.374;2022-10-16T01:13:33;1.85;;;0.75;;
12437;SDS011;6283;51.330;12.374;2022-10-16T01:21:08;0.98;;;0.98;;
12437;SDS011;6283;51.330;12.374;2022-10-16T01:29:05;1.23;;;0.73;;
12437;SDS011;6283;51.330;12.374;2022-10-16T01:31:39;1.92;;;1.00;;
12437;SDS011;6283;51.330;12.374;2022-10-16T01:34:10;1.10;;;1.00;;
12437;SDS011;6283;51.330;12.374;2022-10-16T01:36:41;1.67;;;1.00;;
12437;SDS011;6283;51.330;12.374;2022-10-16T01:39:14;1.65;;;1.00;;
12437;SDS011;6283;51.330;12.374;2022-10-16T01:41:48;2.25;;;0.90;;
12437;SDS011;6283;51.330;12.374;2022-10-16T01:44:21;1.33;;;1.02;;
12437;SDS011;6283;51.330;12.374;2022-10-16T01:46:51;0.80;;;0.80;;
12437;SDS011;6283;51.330;12.374;2022-10-16T01:49:18;1.50;;;1.20;;
12437;SDS011;6283;51.330;12.374;2022-10-16T01:51:47;1.77;;;1.00;;
12437;SDS011;6283;51.330;12.374;2022-10-16T01:54:17;0.82;;;0.82;;
12437;SDS011;6283;51.330;12.374;2022-10-16T01:56:45;1.65;;;1.08;;
12437;SDS011;6283;51.330;12.374;2022-10-16T01:59:15;0.80;;;0.80;;
12437;SDS011;6283;51.330;12.374;2022-10-16T02:01:49;2.78;;;0.80;;
12437;SDS011;6283;51.330;12.374;2022-10-16T02:06:49;2.70;;;1.05;;
12437;SDS011;6283;51.330;12.374;2022-10-16T02:09:15;1.00;;;1.00;;
12437;SDS011;6283;51.330;12.374;2022-10-16T02:11:41;0.93;;;0.90;;
12437;SDS011;6283;51.330;12.374;2022-10-16T02:14:08;3.20;;;0.95;;
12437;SDS011;6283;51.330;12.374;2022-10-16T02:16:38;0.90;;;0.90;;
12437;SDS011;6283;51.330;12.374;2022-10-16T02:19:06;0.73;;;0.73;;
12437;SDS011;6283;51.330;12.374;2022-10-16T02:26:57;1.77;;;0.73;;
12437;SDS011;6283;51.330;12.374;2022-10-16T02:29:30;1.08;;;0.90;;
12437;SDS011;6283;51.330;12.374;2022-10-16T02:32:01;0.80;;;0.80;;
12437;SDS011;6283;51.330;12.374;2022-10-16T02:34:29;1.92;;;0.90;;
12437;SDS011;6283;51.330;12.374;2022-10-16T02:36:57;1.17;;;0.75;;
12437;SDS011;6283;51.330;12.374;2022-10-16T02:39:24;1.25;;;0.80;;
12437;SDS011;6283;51.330;12.374;2022-10-16T02:41:52;2.63;;;1.00;;
12437;SDS011;6283;51.330;12.374;2022-10-16T02:44:17;1.80;;;1.20;;
12437;SDS011;6283;51.330;12.374;2022-10-16T02:46:43;0.80;;;0.80;;
12437;SDS011;6283;51.330;12.374;2022-10-16T02:49:09;0.70;;;0.70;;
12437;SDS011;6283;51.330;12.374;2022-10-16T02:51:34;1.42;;;0.80;;
12437;SDS011;6283;51.330;12.374;2022-10-16T02:54:01;0.88;;;0.88;;
12437;SDS011;6283;51.330;12.374;2022-10-16T02:56:27;2.13;;;0.85;;
12437;SDS011;6283;51.330;12.374;2022-10-16T02:58:52;0.98;;;0.80;;
12437;SDS011;6283;51.330;12.374;2022-10-16T03:01:18;1.25;;;1.10;;
12437;SDS011;6283;51.330;12.374;2022-10-16T03:03:43;1.00;;;1.00;;
12437;SDS011;6283;51.330;12.374;2022-10-16T03:06:09;0.70;;;0.70;;
12437;SDS011;6283;51.330;12.374;2022-10-16T03:08:34;2.17;;;1.08;;
12437;SDS011;6283;51.330;12.374;2022-10-16T03:11:00;0.90;;;0.90;;
12437;SDS011;6283;51.330;12.374;2022-10-16T03:13:26;0.80;;;0.80;;
12437;SDS011;6283;51.330;12.374;2022-10-16T03:15:51;1.27;;;0.77;;
12437;SDS011;6283;51.330;12.374;2022-10-16T03:18:17;0.63;;;0.63;;
12437;SDS011;6283;51.330;12.374;2022-10-16T03:20:43;0.80;;;0.80;;
12437;SDS011;6283;51.330;12.374;2022-10-16T03:23:09;0.50;;;0.50;;
12437;SDS011;6283;51.330;12.374;2022-10-16T03:25:34;1.38;;;0.70;;
12437;SDS011;6283;51.330;12.374;2022-10-16T03:28:00;0.70;;;0.70;;
12437;SDS011;6283;51.330;12.374;2022-10-16T03:30:26;0.70;;;0.70;;
12437;SDS011;6283;51.330;12.374;2022-10-16T03:32:52;1.40;;;0.70;;
12437;SDS011;6283;51.330;12.374;2022-10-16T03:35:19;0.98;;;0.70;;
12437;SDS011;6283;51.330;12.374;2022-10-16T03:37:45;1.48;;;0.70;;
12437;SDS011;6283;51.330;12.374;2022-10-16T03:40:10;2.38;;;0.95;;
12437;SDS011;6283;51.330;12.374;2022-10-16T03:42:36;1.85;;;1.00;;
12437;SDS011;6283;51.330;12.374;2022-10-16T03:45:02;0.80;;;0.80;;
12437;SDS011;6283;51.330;12.374;2022-10-16T03:47:28;0.70;;;0.70;;
12437;SDS011;6283;51.330;12.374;2022-10-16T03:49:53;0.80;;;0.80;;
12437;SDS011;6283;51.330;12.374;2022-10-16T03:52:19;0.75;;;0.75;;
12437;SDS011;6283;51.330;12.374;2022-10-16T03:54:44;1.48;;;0.80;;
12437;SDS011;6283;51.330;12.374;2022-10-16T03:57:10;0.80;;;0.80;;
12437;SDS011;6283;51.330;12.374;2022-10-16T03:59:36;0.90;;;0.90;;
12437;SDS011;6283;51.330;12.374;2022-10-16T04:02:01;2.45;;;1.00;;
12437;SDS011;6283;51.330;12.374;2022-10-16T04:04:27;0.80;;;0.80;;
12437;SDS011;6283;51.330;12.374;2022-10-16T04:06:53;0.80;;;0.80;;
12437;SDS011;6283;51.330;12.374;2022-10-16T04:09:18;1.13;;;1.02;;
12437;SDS011;6283;51.330;12.374;2022-10-16T04:11:44;2.15;;;1.10;;
12437;SDS011;6283;51.330;12.374;2022-10-16T04:14:09;4.18;;;2.83;;
12437;SDS011;6283;51.330;12.374;2022-10-16T04:16:35;7.05;;;5.10;;
12437;SDS011;6283;51.330;12.374;2022-10-16T04:19:00;1.45;;;1.17;;
12437;SDS011;6283;51.330;12.374;2022-10-16T04:21:26;1.10;;;1.00;;
12437;SDS011;6283;51.330;12.374;2022-10-16T04:23:52;0.93;;;0.93;;
12437;SDS011;6283;51.330;12.374;2022-10-16T04:26:17;1.40;;;1.33;;
12437;SDS011;6283;51.330;12.374;2022-10-16T04:28:43;0.82;;;0.80;;
12437;SDS011;6283;51.330;12.374;2022-10-16T04:31:08;0.90;;;0.90;;
12437;SDS011;6283;51.330;12.374;2022-10-16T04:33:34;1.95;;;1.10;;
12437;SDS011;6283;51.330;12.374;2022-10-16T04:36:00;1.30;;;1.20;;
12437;SDS011;6283;51.330;12.374;2022-10-16T04:38:26;1.85;;;1.33;;
12437;SDS011;6283;51.330;12.374;2022-10-16T04:40:52;1.85;;;1.42;;
12437;SDS011;6283;51.330;12.374;2022-10-16T04:43:18;1.40;;;1.30;;
12437;SDS011;6283;51.330;12.374;2022-10-16T04:45:44;1.67;;;1.20;;
12437;SDS011;6283;51.330;12.374;2022-10-16T04:48:10;3.47;;;1.48;;
12437;SDS011;6283;51.330;12.374;2022-10-16T04:50:35;2.60;;;1.42;;
12437;SDS011;6283;51.330;12.374;2022-10-16T04:53:01;1.30;;;1.30;;
12437;SDS011;6283;51.330;12.374;2022-10-16T04:55:27;2.28;;;1.38;;
12437;SDS011;6283;51.330;12.374;2022-10-16T04:57:52;3.08;;;1.40;;
12437;SDS011;6283;51.330;12.374;2022-10-16T05:00:18;1.08;;;1.08;;
12437;SDS011;6283;51.330;12.374;2022-10-16T05:02:43;2.20;;;1.20;;
12437;SDS011;6283;51.330;12.374;2022-10-16T05:05:09;1.98;;;1.38;;
12437;SDS011;6283;51.330;12.374;2022-10-16T05:07:35;1.02;;;1.02;;
12437;SDS011;6283;51.330;12.374;2022-10-16T05:10:00;1.20;;;1.20;;
12437;SDS011;6283;51.330;12.374;2022-10-16T05:12:26;1.40;;;1.30;;
12437;SDS011;6283;51.330;12.374;2022-10-16T05:14:51;1.13;;;1.00;;
12437;SDS011;6283;51.330;12.374;2022-10-16T05:17:17;1.48;;;1.38;;
12437;SDS011;6283;51.330;12.374;2022-10-16T05:19:42;3.15;;;1.00;;
12437;SDS011;6283;51.330;12.374;2022-10-16T05:22:08;1.10;;;1.10;;
12437;SDS011;6283;51.330;12.374;2022-10-16T05:24:34;1.95;;;1.05;;
12437;SDS011;6283;51.330;12.374;2022-10-16T05:26:59;2.38;;;1.88;;
12437;SDS011;6283;51.330;12.374;2022-10-16T05:29:25;3.78;;;1.42;;
12437;SDS011;6283;51.330;12.374;2022-10-16T05:31:51;1.23;;;1.20;;
12437;SDS011;6283;51.330;12.374;2022-10-16T05:34:17;0.95;;;0.95;;
12437;SDS011;6283;51.330;12.374;2022-10-16T05:36:44;1.33;;;1.23;;
12437;SDS011;6283;51.330;12.374;2022-10-16T05:39:10;3.45;;;1.77;;
12437;SDS011;6283;51.330;12.374;2022-10-16T05:41:36;6.88;;;1.50;;
12437;SDS011;6283;51.330;12.374;2022-10-16T05:44:03;2.80;;;1.33;;
12437;SDS011;6283;51.330;12.374;2022-10-16T05:46:30;1.48;;;1.35;;
12437;SDS011;6283;51.330;12.374;2022-10-16T05:48:56;1.30;;;1.20;;
12437;SDS011;6283;51.330;12.374;2022-10-16T05:51:21;1.00;;;1.00;;
12437;SDS011;6283;51.330;12.374;2022-10-16T05:53:47;1.10;;;1.10;;
12437;SDS011;6283;51.330;12.374;2022-10-16T05:56:12;1.30;;;1.20;;
12437;SDS011;6283;51.330;12.374;2022-10-16T05:58:38;1.00;;;1.00;;
12437;SDS011;6283;51.330;12.374;2022-10-16T06:01:10;1.35;;;1.10;;
12437;SDS011;6283;51.330;12.374;2022-10-16T06:03:37;2.38;;;1.30;;
12437;SDS011;6283;51.330;12.374;2022-10-16T06:08:35;2.40;;;1.20;;
12437;SDS011;6283;51.330;12.374;2022-10-16T06:11:04;1.48;;;1.35;;
12437;SDS011;6283;51.330;12.374;2022-10-16T06:13:31;1.15;;;1.15;;
12437;SDS011;6283;51.330;12.374;2022-10-16T06:15:59;1.30;;;1.20;;
12437;SDS011;6283;51.330;12.374;2022-10-16T06:18:25;1.42;;;1.25;;
12437;SDS011;6283;51.330;12.374;2022-10-16T06:20:52;1.65;;;1.38;;
12437;SDS011;6283;51.330;12.374;2022-10-16T06:23:18;2.70;;;1.52;;
12437;SDS011;6283;51.330;12.374;2022-10-16T06:25:43;3.28;;;1.15;;
12437;SDS011;6283;51.330;12.374;2022-10-16T06:28:09;3.03;;;1.10;;
12437;SDS011;6283;51.330;12.374;2022-10-16T06:30:34;1.10;;;1.00;;
12437;SDS011;6283;51.330;12.374;2022-10-16T06:33:00;1.45;;;1.20;;
12437;SDS011;6283;51.330;12.374;2022-10-16T06:35:25;3.15;;;1.00;;
12437;SDS011;6283;51.330;12.374;2022-10-16T06:37:52;2.22;;;1.20;;
12437;SDS011;6283;51.330;12.374;2022-10-16T06:40:18;1.52;;;1.40;;
12437;SDS011;6283;51.330;12.374;2022-10-16T06:42:43;1.05;;;1.05;;
12437;SDS011;6283;51.330;12.374;2022-10-16T06:45:10;1.83;;;1.10;;
12437;SDS011;6283;51.330;12.374;2022-10-16T06:47:35;1.02;;;1.02;;
12437;SDS011;6283;51.330;12.374;2022-10-16T06:50:01;1.88;;;1.10;;
12437;SDS011;6283;51.330;12.374;2022-10-16T06:52:29;1.30;;;1.20;;
12437;SDS011;6283;51.330;12.374;2022-10-16T06:54:55;1.42;;;1.17;;
12437;SDS011;6283;51.330;12.374;2022-10-16T06:57:21;1.35;;;1.10;;
12437;SDS011;6283;51.330;12.374;2022-10-16T06:59:46;1.20;;;1.10;;
12437;SDS011;6283;51.330;12.374;2022-10-16T07:02:12;1.63;;;1.38;;
12437;SDS011;6283;51.330;12.374;2022-10-16T07:04:37;2.50;;;1.30;;
12437;SDS011;6283;51.330;12.374;2022-10-16T07:07:03;1.20;;;1.02;;
12437;SDS011;6283;51.330;12.374;2022-10-16T07:09:28;1.10;;;1.10;;
12437;SDS011;6283;51.330;12.374;2022-10-16T07:11:54;3.88;;;1.52;;
12437;SDS011;6283;51.330;12.374;2022-10-16T07:14:20;1.40;;;1.30;;
12437;SDS011;6283;51.330;12.374;2022-10-16T07:16:46;1.05;;;1.00;;
12437;SDS011;6283;51.330;12.374;2022-10-16T07:19:13;1.15;;;1.10;;
12437;SDS011;6283;51.330;12.374;2022-10-16T07:21:41;0.90;;;0.90;;
12437;SDS011;6283;51.330;12.374;2022-10-16T07:24:10;0.93;;;0.93;;
12437;SDS011;6283;51.330;12.374;2022-10-16T07:26:37;1.00;;;1.00;;
12437;SDS011;6283;51.330;12.374;2022-10-16T07:29:04;1.52;;;1.10;;
12437;SDS011;6283;51.330;12.374;2022-10-16T07:31:38;1.05;;;1.00;;
12437;SDS011;6283;51.330;12.374;2022-10-16T07:34:05;1.40;;;1.05;;
12437;SDS011;6283;51.330;12.374;2022-10-16T07:36:30;2.28;;;1.10;;
12437;SDS011;6283;51.330;12.374;2022-10-16T07:38:56;5.55;;;1.42;;
12437;SDS011;6283;51.330;12.374;2022-10-16T07:41:22;2.25;;;0.90;;
12437;SDS011;6283;51.330;12.374;2022-10-16T07:43:48;1.02;;;0.80;;
12437;SDS011;6283;51.330;12.374;2022-10-16T07:46:15;1.27;;;0.95;;
12437;SDS011;6283;51.330;12.374;2022-10-16T07:48:41;3.45;;;1.10;;
12437;SDS011;6283;51.330;12.374;2022-10-16T07:51:10;1.67;;;0.70;;
12437;SDS011;6283;51.330;12.374;2022-10-16T07:53:37;0.60;;;0.60;;
12437;SDS011;6283;51.330;12.374;2022-10-16T07:56:04;0.70;;;0.70;;
12437;SDS011;6283;51.330;12.374;2022-10-16T07:58:31;0.70;;;0.70;;
12437;SDS011;6283;51.330;12.374;2022-10-16T08:00:57;0.60;;;0.60;;
12437;SDS011;6283;51.330;12.374;2022-10-16T08:03:23;1.58;;;0.70;;
12437;SDS011;6283;51.330;12.374;2022-10-16T08:05:49;0.80;;;0.80;;
12437;SDS011;6283;51.330;12.374;2022-10-16T08:08:15;0.82;;;0.60;;
12437;SDS011;6283;51.330;12.374;2022-10-16T08:10:41;0.70;;;0.70;;
12437;SDS011;6283;51.330;12.374;2022-10-16T08:13:07;1.08;;;0.88;;
12437;SDS011;6283;51.330;12.374;2022-10-16T08:15:33;1.45;;;0.90;;
12437;SDS011;6283;51.330;12.374;2022-10-16T08:18:00;1.38;;;0.60;;
12437;SDS011;6283;51.330;12.374;2022-10-16T08:20:27;0.63;;;0.63;;
12437;SDS011;6283;51.330;12.374;2022-10-16T08:22:54;0.68;;;0.68;;
12437;SDS011;6283;51.330;12.374;2022-10-16T08:25:20;0.70;;;0.70;;
12437;SDS011;6283;51.330;12.374;2022-10-16T08:27:47;0.98;;;0.75;;
12437;SDS011;6283;51.330;12.374;2022-10-16T08:30:12;0.68;;;0.68;;
12437;SDS011;6283;51.330;12.374;2022-10-16T08:32:38;1.08;;;0.80;;
12437;SDS011;6283;51.330;12.374;2022-10-16T08:35:04;0.70;;;0.70;;
12437;SDS011;6283;51.330;12.374;2022-10-16T08:37:30;0.40;;;0.40;;
12437;SDS011;6283;51.330;12.374;2022-10-16T08:39:57;0.82;;;0.82;;
12437;SDS011;6283;51.330;12.374;2022-10-16T08:42:45;0.60;;;0.60;;
12437;SDS011;6283;51.330;12.374;2022-10-16T08:48:00;0.68;;;0.65;;
12437;SDS011;6283;51.330;12.374;2022-10-16T08:50:49;0.75;;;0.75;;
12437;SDS011;6283;51.330;12.374;2022-10-16T08:53:20;0.50;;;0.50;;
12437;SDS011;6283;51.330;12.374;2022-10-16T08:56:05;0.60;;;0.60;;
12437;SDS011;6283;51.330;12.374;2022-10-16T08:58:31;2.72;;;0.77;;
12437;SDS011;6283;51.330;12.374;2022-10-16T09:00:58;0.60;;;0.60;;
12437;SDS011;6283;51.330;12.374;2022-10-16T09:04:17;1.88;;;0.73;;
12437;SDS011;6283;51.330;12.374;2022-10-16T09:12:08;0.80;;;0.80;;
12437;SDS011;6283;51.330;12.374;2022-10-16T09:25:29;1.75;;;0.85;;
12437;SDS011;6283;51.330;12.374;2022-10-16T09:27:56;0.60;;;0.60;;
12437;SDS011;6283;51.330;12.374;2022-10-16T09:30:22;0.43;;;0.43;;
12437;SDS011;6283;51.330;12.374;2022-10-16T09:32:51;0.90;;;0.90;;
12437;SDS011;6283;51.330;12.374;2022-10-16T09:35:22;0.60;;;0.60;;
12437;SDS011;6283;51.330;12.374;2022-10-16T09:37:57;1.25;;;0.95;;
12437;SDS011;6283;51.330;12.374;2022-10-16T09:40:24;3.38;;;3.10;;
12437;SDS011;6283;51.330;12.374;2022-10-16T09:48:44;2.55;;;1.05;;
12437;SDS011;6283;51.330;12.374;2022-10-16T09:51:18;1.17;;;0.70;;
12437;SDS011;6283;51.330;12.374;2022-10-16T09:53:47;0.70;;;0.70;;
12437;SDS011;6283;51.330;12.374;2022-10-16T09:59:18;1.33;;;0.80;;
12437;SDS011;6283;51.330;12.374;2022-10-16T10:01:51;0.80;;;0.80;;
12437;SDS011;6283;51.330;12.374;2022-10-16T10:04:19;1.08;;;0.70;;
12437;SDS011;6283;51.330;12.374;2022-10-16T10:06:46;0.90;;;0.90;;
12437;SDS011;6283;51.330;12.374;2022-10-16T10:12:03;0.90;;;0.90;;
12437;SDS011;6283;51.330;12.374;2022-10-16T10:22:19;1.45;;;1.00;;
12437;SDS011;6283;51.330;12.374;2022-10-16T10:38:37;1.02;;;1.02;;
12437;SDS011;6283;51.330;12.374;2022-10-16T10:41:09;0.70;;;0.70;;
12437;SDS011;6283;51.330;12.374;2022-10-16T10:43:49;1.05;;;1.00;;
12437;SDS011;6283;51.330;12.374;2022-10-16T10:46:48;0.90;;;0.90;;
12437;SDS011;6283;51.330;12.374;2022-10-16T10:54:54;0.80;;;0.80;;
12437;SDS011;6283;51.330;12.374;2022-10-16T11:00:20;1.17;;;1.08;;
12437;SDS011;6283;51.330;12.374;2022-10-16T11:03:00;1.25;;;0.90;;
12437;SDS011;6283;51.330;12.374;2022-10-16T11:05:52;1.00;;;1.00;;
12437;SDS011;6283;51.330;12.374;2022-10-16T11:08:31;1.10;;;1.10;;
12437;SDS011;6283;51.330;12.374;2022-10-16T11:11:06;1.77;;;1.10;;
12437;SDS011;6283;51.330;12.374;2022-10-16T11:16:31;1.00;;;1.00;;
12437;SDS011;6283;51.330;12.374;2022-10-16T11:19:08;1.13;;;1.08;;
12437;SDS011;6283;51.330;12.374;2022-10-16T11:21:41;1.65;;;1.20;;
12437;SDS011;6283;51.330;12.374;2022-10-16T11:24:35;2.15;;;1.20;;
12437;SDS011;6283;51.330;12.374;2022-10-16T11:27:23;1.15;;;0.82;;
12437;SDS011;6283;51.330;12.374;2022-10-16T11:30:24;1.17;;;1.08;;
12437;SDS011;6283;51.330;12.374;2022-10-16T11:35:22;0.88;;;0.88;;
12437;SDS011;6283;51.330;12.374;2022-10-16T11:38:07;0.90;;;0.90;;
12437;SDS011;6283;51.330;12.374;2022-10-16T11:40:41;2.33;;;1.10;;
12437;SDS011;6283;51.330;12.374;2022-10-16T11:43:14;1.08;;;1.00;;
12437;SDS011;6283;51.330;12.374;2022-10-16T11:45:52;1.48;;;1.20;;
12437;SDS011;6283;51.330;12.374;2022-10-16T11:51:25;1.30;;;1.10;;
12437;SDS011;6283;51.330;12.374;2022-10-16T11:56:46;2.17;;;1.15;;
12437;SDS011;6283;51.330;12.374;2022-10-16T11:59:32;1.83;;;1.30;;
12437;SDS011;6283;51.330;12.374;2022-10-16T12:04:53;1.40;;;0.88;;
12437;SDS011;6283;51.330;12.374;2022-10-16T12:07:36;1.15;;;1.15;;
12437;SDS011;6283;51.330;12.374;2022-10-16T12:10:21;1.25;;;1.17;;
12437;SDS011;6283;51.330;12.374;2022-10-16T12:12:49;1.40;;;1.30;;
12437;SDS011;6283;51.330;12.374;2022-10-16T12:15:19;1.70;;;1.10;;
12437;SDS011;6283;51.330;12.374;2022-10-16T12:17:45;1.23;;;1.13;;
12437;SDS011;6283;51.330;12.374;2022-10-16T12:22:37;1.20;;;1.10;;
12437;SDS011;6283;51.330;12.374;2022-10-16T12:25:22;1.02;;;1.02;;
12437;SDS011;6283;51.330;12.374;2022-10-16T12:28:25;1.58;;;1.10;;
12437;SDS011;6283;51.330;12.374;2022-10-16T12:30:41;1.13;;;1.13;;
12437;SDS011;6283;51.330;12.374;2022-10-16T12:33:27;1.00;;;1.00;;
12437;SDS011;6283;51.330;12.374;2022-10-16T12:35:53;1.20;;;1.10;;
12437;SDS011;6283;51.330;12.374;2022-10-16T12:38:20;1.00;;;1.00;;
12437;SDS011;6283;51.330;12.374;2022-10-16T12:40:53;2.15;;;1.20;;
12437;SDS011;6283;51.330;12.374;2022-10-16T12:46:19;1.48;;;1.02;;
12437;SDS011;6283;51.330;12.374;2022-10-16T12:49:05;0.80;;;0.80;;
12437;SDS011;6283;51.330;12.374;2022-10-16T12:54:03;1.45;;;0.93;;
12437;SDS011;6283;51.330;12.374;2022-10-16T12:56:46;1.42;;;0.95;;
12437;SDS011;6283;51.330;12.374;2022-10-16T12:59:28;0.80;;;0.80;;
12437;SDS011;6283;51.330;12.374;2022-10-16T13:07:49;1.17;;;1.08;;
12437;SDS011;6283;51.330;12.374;2022-10-16T13:10:37;0.88;;;0.88;;
12437;SDS011;6283;51.330;12.374;2022-10-16T13:13:14;2.42;;;0.95;;
12437;SDS011;6283;51.330;12.374;2022-10-16T13:24:02;1.05;;;0.90;;
12437;SDS011;6283;51.330;12.374;2022-10-16T13:27:07;0.82;;;0.82;;
12437;SDS011;6283;51.330;12.374;2022-10-16T13:29:35;1.13;;;0.70;;
12437;SDS011;6283;51.330;12.374;2022-10-16T13:32:01;0.77;;;0.77;;
12437;SDS011;6283;51.330;12.374;2022-10-16T13:34:41;0.90;;;0.90;;
12437;SDS011;6283;51.330;12.374;2022-10-16T13:37:16;0.70;;;0.70;;
12437;SDS011;6283;51.330;12.374;2022-10-16T13:39:44;1.30;;;1.20;;
12437;SDS011;6283;51.330;12.374;2022-10-16T13:42:11;1.20;;;0.80;;
12437;SDS011;6283;51.330;12.374;2022-10-16T13:44:40;0.90;;;0.90;;
12437;SDS011;6283;51.330;12.374;2022-10-16T13:47:22;0.95;;;0.95;;
12437;SDS011;6283;51.330;12.374;2022-10-16T13:50:03;0.70;;;0.70;;
12437;SDS011;6283;51.330;12.374;2022-10-16T13:52:31;1.67;;;0.90;;
12437;SDS011;6283;51.330;12.374;2022-10-16T13:54:57;0.70;;;0.68;;
12437;SDS011;6283;51.330;12.374;2022-10-16T13:57:23;0.93;;;0.93;;
12437;SDS011;6283;51.330;12.374;2022-10-16T13:59:49;0.85;;;0.85;;
12437;SDS011;6283;51.330;12.374;2022-10-16T14:02:25;0.80;;;0.80;;
12437;SDS011;6283;51.330;12.374;2022-10-16T14:04:52;1.33;;;0.70;;
12437;SDS011;6283;51.330;12.374;2022-10-16T14:07:20;0.80;;;0.80;;
12437;SDS011;6283;51.330;12.374;2022-10-16T14:09:51;0.73;;;0.70;;
12437;SDS011;6283;51.330;12.374;2022-10-16T14:12:17;0.90;;;0.90;;
12437;SDS011;6283;51.330;12.374;2022-10-16T14:14:47;1.33;;;0.90;;
12437;SDS011;6283;51.330;12.374;2022-10-16T14:17:16;1.75;;;1.65;;
12437;SDS011;6283;51.330;12.374;2022-10-16T14:19:51;1.67;;;1.13;;
12437;SDS011;6283;51.330;12.374;2022-10-16T14:24:54;1.38;;;1.10;;
12437;SDS011;6283;51.330;12.374;2022-10-16T14:32:33;2.42;;;2.22;;
12437;SDS011;6283;51.330;12.374;2022-10-16T14:34:59;2.13;;;1.77;;
12437;SDS011;6283;51.330;12.374;2022-10-16T14:37:25;1.60;;;1.40;;
12437;SDS011;6283;51.330;12.374;2022-10-16T14:39:53;1.88;;;1.40;;
12437;SDS011;6283;51.330;12.374;2022-10-16T14:42:20;1.30;;;1.13;;
12437;SDS011;6283;51.330;12.374;2022-10-16T14:44:49;1.25;;;1.15;;
12437;SDS011;6283;51.330;12.374;2022-10-16T14:47:19;1.10;;;1.10;;
12437;SDS011;6283;51.330;12.374;2022-10-16T14:49:50;0.90;;;0.90;;
12437;SDS011;6283;51.330;12.374;2022-10-16T14:52:16;0.90;;;0.90;;
12437;SDS011;6283;51.330;12.374;2022-10-16T14:54:42;1.00;;;1.00;;
12437;SDS011;6283;51.330;12.374;2022-10-16T14:57:17;2.40;;;2.20;;
12437;SDS011;6283;51.330;12.374;2022-10-16T14:59:45;2.72;;;2.30;;
12437;SDS011;6283;51.330;12.374;2022-10-16T15:05:04;1.33;;;1.23;;
12437;SDS011;6283;51.330;12.374;2022-10-16T15:07:35;1.45;;;1.35;;
12437;SDS011;6283;51.330;12.374;2022-10-16T15:10:00;1.60;;;1.50;;
12437;SDS011;6283;51.330;12.374;2022-10-16T15:12:26;1.20;;;1.20;;
12437;SDS011;6283;51.330;12.374;2022-10-16T15:14:52;1.85;;;1.75;;
12437;SDS011;6283;51.330;12.374;2022-10-16T15:17:17;1.00;;;1.00;;
12437;SDS011;6283;51.330;12.374;2022-10-16T15:19:43;2.72;;;1.02;;
12437;SDS011;6283;51.330;12.374;2022-10-16T15:22:09;1.00;;;1.00;;
12437;SDS011;6283;51.330;12.374;2022-10-16T15:24:36;1.38;;;1.25;;
12437;SDS011;6283;51.330;12.374;2022-10-16T15:27:02;1.52;;;1.30;;
12437;SDS011;6283;51.330;12.374;2022-10-16T15:29:28;2.38;;;2.17;;
12437;SDS011;6283;51.330;12.374;2022-10-16T15:31:53;1.45;;;1.35;;
12437;SDS011;6283;51.330;12.374;2022-10-16T15:34:19;1.27;;;1.27;;
12437;SDS011;6283;51.330;12.374;2022-10-16T15:36:44;2.10;;;2.00;;
12437;SDS011;6283;51.330;12.374;2022-10-16T15:39:12;2.13;;;1.92;;
12437;SDS011;6283;51.330;12.374;2022-10-16T15:41:42;1.60;;;1.50;;
12437;SDS011;6283;51.330;12.374;2022-10-16T15:44:09;1.60;;;1.50;;
12437;SDS011;6283;51.330;12.374;2022-10-16T15:46:35;3.03;;;2.50;;
12437;SDS011;6283;51.330;12.374;2022-10-16T15:49:02;6.50;;;5.13;;
12437;SDS011;6283;51.330;12.374;2022-10-16T15:51:28;8.13;;;6.60;;
12437;SDS011;6283;51.330;12.374;2022-10-16T15:53:58;4.05;;;3.70;;
12437;SDS011;6283;51.330;12.374;2022-10-16T15:56:26;2.83;;;2.63;;
12437;SDS011;6283;51.330;12.374;2022-10-16T15:58:53;1.83;;;1.63;;
12437;SDS011;6283;51.330;12.374;2022-10-16T16:01:20;1.10;;;1.10;;
12437;SDS011;6283;51.330;12.374;2022-10-16T16:03:46;1.40;;;1.30;;
12437;SDS011;6283;51.330;12.374;2022-10-16T16:06:12;2.00;;;1.80;;
12437;SDS011;6283;51.330;12.374;2022-10-16T16:08:39;1.60;;;1.48;;
12437;SDS011;6283;51.330;12.374;2022-10-16T16:11:06;1.77;;;1.67;;
12437;SDS011;6283;51.330;12.374;2022-10-16T16:13:36;1.50;;;1.40;;
12437;SDS011;6283;51.330;12.374;2022-10-16T16:16:06;1.50;;;1.40;;
12437;SDS011;6283;51.330;12.374;2022-10-16T16:18:33;2.25;;;2.05;;
12437;SDS011;6283;51.330;12.374;2022-10-16T16:20:58;3.03;;;1.38;;
12437;SDS011;6283;51.330;12.374;2022-10-16T16:23:24;1.58;;;1.48;;
12437;SDS011;6283;51.330;12.374;2022-10-16T16:26:05;2.92;;;2.28;;
12437;SDS011;6283;51.330;12.374;2022-10-16T16:28:34;3.40;;;3.10;;
12437;SDS011;6283;51.330;12.374;2022-10-16T16:31:00;3.03;;;2.47;;
12437;SDS011;6283;51.330;12.374;2022-10-16T16:33:26;5.20;;;3.30;;
12437;SDS011;6283;51.330;12.374;2022-10-16T16:35:55;5.15;;;3.80;;
12437;SDS011;6283;51.330;12.374;2022-10-16T16:38:25;3.33;;;2.47;;
12437;SDS011;6283;51.330;12.374;2022-10-16T16:40:51;4.00;;;2.72;;
12437;SDS011;6283;51.330;12.374;2022-10-16T16:43:17;3.28;;;2.65;;
12437;SDS011;6283;51.330;12.374;2022-10-16T16:45:43;5.03;;;2.42;;
12437;SDS011;6283;51.330;12.374;2022-10-16T16:48:08;3.50;;;3.20;;
12437;SDS011;6283;51.330;12.374;2022-10-16T16:50:35;3.20;;;2.65;;
12437;SDS011;6283;51.330;12.374;2022-10-16T16:53:01;5.28;;;2.67;;
12437;SDS011;6283;51.330;12.374;2022-10-16T16:55:27;5.05;;;2.60;;
12437;SDS011;6283;51.330;12.374;2022-10-16T16:57:53;2.53;;;2.33;;
12437;SDS011;6283;51.330;12.374;2022-10-16T17:00:18;4.28;;;3.03;;
12437;SDS011;6283;51.330;12.374;2022-10-16T17:02:47;3.05;;;2.78;;
12437;SDS011;6283;51.330;12.374;2022-10-16T17:05:16;4.28;;;2.65;;
12437;SDS011;6283;51.330;12.374;2022-10-16T17:07:42;3.70;;;2.95;;